createdAt,value
2018-04-29T00:02:00.158Z,4.00
2018-04-29T00:04:28.717Z,4.10
2018-04-29T00:06:57.278Z,4.30
2018-04-29T00:09:26.594Z,4.17
2018-04-29T00:11:55.150Z,4.50
2018-04-29T00:14:24.468Z,4.37
2018-04-29T00:16:53.027Z,4.37
2018-04-29T00:19:21.611Z,4.87
2018-04-29T00:21:50.180Z,4.07
2018-04-29T00:24:18.749Z,4.13
2018-04-29T00:26:47.309Z,3.67
2018-04-29T00:29:15.861Z,4.10
2018-04-29T00:31:45.189Z,3.47
2018-04-29T00:34:13.741Z,3.53
2018-04-29T00:36:43.074Z,4.10
2018-04-29T00:39:11.649Z,3.83
2018-04-29T00:41:40.202Z,4.30
2018-04-29T00:44:09.514Z,3.60
2018-04-29T00:46:38.074Z,4.20
2018-04-29T00:49:06.629Z,3.87
2018-04-29T00:51:53.087Z,3.83
2018-04-29T00:54:22.407Z,4.67
2018-04-29T00:56:50.974Z,4.20
2018-04-29T00:59:19.529Z,4.30
2018-04-29T01:01:48.082Z,3.67
2018-04-29T01:04:16.671Z,4.43
2018-04-29T01:06:45.230Z,4.07
2018-04-29T01:09:13.774Z,4.27
2018-04-29T01:11:42.322Z,3.97
2018-04-29T01:14:10.922Z,4.37
2018-04-29T01:16:39.471Z,3.83
2018-04-29T01:19:08.014Z,4.57
2018-04-29T01:21:37.357Z,3.97
2018-04-29T01:24:05.878Z,4.57
2018-04-29T01:26:34.426Z,4.00
2018-04-29T01:29:02.962Z,3.67
2018-04-29T01:31:32.269Z,4.47
2018-04-29T01:34:01.612Z,4.67
2018-04-29T01:36:30.157Z,4.57
2018-04-29T01:38:58.710Z,4.80
2018-04-29T01:41:28.066Z,3.43
2018-04-29T01:43:56.627Z,4.30
2018-04-29T01:46:25.940Z,4.50
2018-04-29T01:48:54.491Z,4.63
2018-04-29T01:51:23.065Z,4.20
2018-04-29T01:53:51.645Z,4.00
2018-04-29T01:56:20.196Z,4.20
2018-04-29T01:58:48.771Z,4.43
2018-04-29T02:01:17.330Z,4.37
2018-04-29T02:03:45.915Z,4.67
2018-04-29T02:06:15.237Z,4.50
2018-04-29T02:08:43.785Z,4.10
2018-04-29T02:11:13.106Z,4.50
2018-04-29T02:13:41.654Z,4.30
2018-04-29T02:16:10.205Z,4.23
2018-04-29T02:18:38.745Z,4.30
2018-04-29T02:21:07.314Z,4.23
2018-04-29T02:23:35.871Z,3.57
2018-04-29T02:26:04.497Z,3.50
2018-04-29T02:28:33.812Z,3.87
2018-04-29T02:31:02.355Z,3.50
2018-04-29T02:33:31.726Z,5.10
2018-04-29T02:36:00.542Z,4.07
2018-04-29T02:38:29.093Z,3.97
2018-04-29T02:40:57.646Z,4.10
2018-04-29T02:43:26.233Z,4.37
2018-04-29T02:45:54.777Z,3.97
2018-04-29T02:48:23.342Z,4.47
2018-04-29T02:53:46.849Z,4.37
2018-04-29T02:56:15.352Z,3.93
2018-04-29T02:58:44.632Z,4.03
2018-04-29T03:01:13.138Z,4.20
2018-04-29T03:03:42.412Z,4.30
2018-04-29T03:06:10.909Z,4.20
2018-04-29T03:08:39.411Z,4.10
2018-04-29T03:11:08.682Z,4.80
2018-04-29T03:13:37.232Z,4.57
2018-04-29T03:16:05.741Z,4.53
2018-04-29T03:18:34.242Z,4.70
2018-04-29T03:21:03.522Z,4.40
2018-04-29T03:23:32.041Z,4.50
2018-04-29T03:26:01.308Z,5.03
2018-04-29T03:28:29.830Z,5.00
2018-04-29T03:30:58.329Z,4.60
2018-04-29T03:33:26.869Z,4.90
2018-04-29T03:35:55.370Z,5.07
2018-04-29T03:38:24.638Z,5.60
2018-04-29T03:40:53.146Z,5.37
2018-04-29T03:43:21.696Z,5.57
2018-04-29T03:45:50.197Z,6.17
2018-04-29T03:48:19.473Z,6.87
2018-04-29T03:50:47.968Z,5.73
2018-04-29T03:53:16.470Z,5.67
2018-04-29T03:55:45.737Z,7.40
2018-04-29T03:58:32.191Z,6.30
2018-04-29T04:01:18.650Z,6.57
2018-04-29T04:03:58.295Z,7.53
2018-04-29T04:06:26.819Z,7.77
2018-04-29T04:08:55.361Z,8.83
2018-04-29T04:11:23.891Z,8.47
2018-04-29T04:13:52.404Z,8.13
2018-04-29T04:16:20.953Z,9.00
2018-04-29T04:18:49.482Z,10.10
2018-04-29T04:21:18.026Z,9.70
2018-04-29T04:23:46.645Z,11.27
2018-04-29T04:26:15.188Z,10.60
2018-04-29T04:28:43.743Z,11.80
2018-04-29T04:31:13.061Z,12.77
2018-04-29T04:33:41.626Z,13.00
2018-04-29T04:36:10.978Z,12.50
2018-04-29T04:38:39.575Z,12.77
2018-04-29T04:41:08.136Z,12.17
2018-04-29T04:43:36.739Z,11.37
2018-04-29T04:46:05.315Z,11.57
2018-04-29T04:48:33.880Z,10.87
2018-04-29T04:51:02.471Z,9.40
2018-04-29T04:53:31.043Z,10.77
2018-04-29T04:55:59.619Z,11.33
2018-04-29T04:58:28.186Z,9.93
2018-04-29T05:00:57.539Z,10.63
2018-04-29T05:03:26.109Z,10.80
2018-04-29T05:05:54.688Z,11.03
2018-04-29T05:08:23.269Z,10.13
2018-04-29T05:10:51.819Z,10.50
2018-04-29T05:13:21.218Z,10.97
2018-04-29T05:15:50.555Z,9.10
2018-04-29T05:18:19.111Z,10.73
2018-04-29T05:20:48.504Z,11.00
2018-04-29T05:23:17.847Z,12.53
2018-04-29T05:25:46.423Z,10.33
2018-04-29T05:28:15.001Z,11.60
2018-04-29T05:30:43.583Z,10.67
2018-04-29T05:33:12.172Z,10.63
2018-04-29T05:35:40.747Z,12.07
2018-04-29T05:38:09.318Z,9.70
2018-04-29T05:40:37.894Z,11.17
2018-04-29T05:43:07.238Z,10.77
2018-04-29T05:45:35.843Z,10.73
2018-04-29T05:48:04.402Z,9.67
2018-04-29T05:50:32.994Z,11.27
2018-04-29T05:53:01.562Z,10.77
2018-04-29T05:55:30.126Z,11.20
2018-04-29T05:57:58.701Z,10.70
2018-04-29T06:00:28.084Z,11.87
2018-04-29T06:02:56.058Z,11.57
2018-04-29T06:05:23.926Z,12.20
2018-04-29T06:07:51.765Z,13.50
2018-04-29T06:10:20.355Z,14.57
2018-04-29T06:12:48.961Z,14.73
2018-04-29T06:15:16.785Z,15.40
2018-04-29T06:17:44.636Z,17.67
2018-04-29T06:20:12.495Z,17.43
2018-04-29T06:22:40.888Z,18.27
2018-04-29T06:25:08.875Z,17.50
2018-04-29T06:27:36.690Z,16.47
2018-04-29T06:30:04.522Z,17.10
2018-04-29T06:32:32.361Z,14.87
2018-04-29T06:35:00.190Z,14.10
2018-04-29T06:37:28.812Z,14.67
2018-04-29T06:39:56.681Z,11.00
2018-04-29T06:42:24.536Z,12.50
2018-04-29T06:44:52.393Z,10.63
2018-04-29T06:47:20.245Z,10.50
2018-04-29T06:49:48.072Z,8.47
2018-04-29T06:52:16.638Z,7.40
2018-04-29T06:54:44.481Z,6.13
2018-04-29T06:57:12.328Z,6.00
2018-04-29T06:59:40.161Z,6.13
2018-04-29T07:02:08.766Z,6.30
2018-04-29T07:04:36.610Z,6.10
2018-04-29T07:07:05.198Z,7.00
2018-04-29T07:09:33.419Z,5.50
2018-04-29T07:12:01.265Z,5.97
2018-04-29T07:14:29.117Z,6.13
2018-04-29T07:16:56.949Z,6.27
2018-04-29T07:19:24.819Z,5.83
2018-04-29T07:21:53.408Z,5.20
2018-04-29T07:26:55.965Z,5.90
2018-04-29T07:29:23.781Z,5.13
2018-04-29T07:31:52.377Z,5.30
2018-04-29T07:34:20.203Z,5.67
2018-04-29T07:36:48.062Z,8.30
2018-04-29T07:39:15.913Z,9.23
2018-04-29T07:41:43.736Z,9.70
2018-04-29T07:44:11.608Z,10.10
2018-04-29T07:46:39.469Z,10.10
2018-04-29T07:49:07.458Z,9.27
2018-04-29T07:51:35.302Z,9.80
2018-04-29T07:54:06.400Z,9.03
2018-04-29T07:56:40.443Z,8.90
2018-04-29T07:59:14.211Z,8.83
2018-04-29T08:01:42.046Z,8.00
2018-04-29T08:04:09.900Z,7.03
2018-04-29T08:06:37.750Z,6.70
2018-04-29T08:09:12.178Z,7.27
2018-04-29T08:11:40.098Z,6.73
2018-04-29T08:14:13.938Z,7.27
2018-04-29T08:16:41.878Z,6.63
2018-04-29T08:19:09.758Z,7.30
2018-04-29T08:21:37.598Z,8.80
2018-04-29T08:24:05.418Z,9.83
2018-04-29T08:26:34.027Z,9.00
2018-04-29T08:29:01.890Z,10.33
2018-04-29T08:31:29.750Z,10.17
2018-04-29T08:33:57.589Z,10.77
2018-04-29T08:36:25.485Z,10.40
2018-04-29T08:38:53.365Z,10.93
2018-04-29T08:41:21.253Z,9.33
2018-04-29T08:43:49.136Z,10.73
2018-04-29T08:46:17.836Z,10.67
2018-04-29T08:48:45.797Z,9.53
2018-04-29T08:51:14.467Z,9.60
2018-04-29T08:53:43.333Z,9.65
2018-04-29T08:56:11.414Z,9.20
2018-04-29T08:58:39.361Z,9.10
2018-04-29T09:01:08.694Z,9.17
2018-04-29T09:03:37.606Z,9.40
2018-04-29T09:06:05.531Z,9.20
2018-04-29T09:08:34.282Z,9.20
2018-04-29T09:11:02.258Z,8.90
2018-04-29T09:13:30.253Z,8.82
2018-04-29T09:15:58.146Z,8.10
2018-04-29T09:18:26.040Z,7.72
2018-04-29T09:20:54.341Z,7.70
2018-04-29T09:23:22.849Z,8.95
2018-04-29T09:25:50.795Z,8.23
2018-04-29T09:28:18.836Z,8.43
2018-04-29T09:30:46.965Z,7.60
2018-04-29T09:33:14.898Z,8.13
2018-04-29T09:35:42.935Z,8.68
2018-04-29T09:38:11.511Z,8.30
2018-04-29T09:40:39.528Z,7.37
2018-04-29T09:43:07.445Z,7.60
2018-04-29T09:45:35.402Z,7.78
2018-04-29T09:48:03.337Z,8.00
2018-04-29T09:50:31.191Z,7.63
2018-04-29T09:52:59.326Z,8.00
2018-04-29T09:55:27.210Z,7.90
2018-04-29T09:57:55.218Z,7.80
2018-04-29T10:00:23.121Z,7.17
2018-04-29T10:02:51.005Z,6.40
2018-04-29T10:05:18.855Z,5.73
2018-04-29T10:07:46.720Z,6.27
2018-04-29T10:10:14.575Z,6.07
2018-04-29T10:12:42.446Z,5.53
2018-04-29T10:15:10.326Z,4.90
2018-04-29T10:17:38.319Z,5.05
2018-04-29T10:20:08.754Z,5.30
2018-04-29T10:22:36.620Z,5.60
2018-04-29T10:25:04.526Z,5.50
2018-04-29T10:27:33.174Z,6.00
2018-04-29T10:30:01.316Z,5.93
2018-04-29T10:32:29.195Z,5.45
2018-04-29T10:34:57.042Z,5.90
2018-04-29T10:37:24.872Z,5.65
2018-04-29T10:39:53.513Z,6.43
2018-04-29T10:42:21.378Z,6.03
2018-04-29T10:44:49.225Z,6.00
2018-04-29T10:47:17.078Z,6.85
2018-04-29T10:49:44.925Z,6.30
2018-04-29T10:52:13.558Z,5.57
2018-04-29T10:54:41.422Z,5.10
2018-04-29T10:57:09.302Z,4.78
2018-04-29T10:59:37.199Z,5.25
2018-04-29T11:05:00.838Z,5.55
2018-04-29T11:07:28.701Z,5.57
2018-04-29T11:09:56.573Z,5.78
2018-04-29T11:12:24.406Z,5.12
2018-04-29T11:14:53.017Z,5.47
2018-04-29T11:17:20.862Z,5.68
2018-04-29T11:19:49.469Z,5.72
2018-04-29T11:22:17.364Z,6.32
2018-04-29T11:24:45.169Z,5.32
2018-04-29T11:27:13.823Z,5.43
2018-04-29T11:29:41.665Z,5.90
2018-04-29T11:32:09.493Z,6.18
2018-04-29T11:34:38.110Z,6.57
2018-04-29T11:37:05.922Z,6.90
2018-04-29T11:39:33.742Z,5.57
2018-04-29T11:42:01.606Z,5.72
2018-04-29T11:44:29.413Z,5.37
2018-04-29T11:46:57.245Z,5.85
2018-04-29T11:49:25.081Z,6.60
2018-04-29T11:51:53.674Z,6.40
2018-04-29T11:54:22.274Z,5.75
2018-04-29T11:56:50.093Z,5.18
2018-04-29T11:59:17.921Z,6.05
2018-04-29T12:01:45.758Z,6.10
2018-04-29T12:04:13.590Z,5.80
2018-04-29T12:06:41.438Z,6.05
2018-04-29T12:09:09.314Z,5.43
2018-04-29T12:11:37.168Z,6.82
2018-04-29T12:14:05.010Z,5.90
2018-04-29T12:16:32.904Z,6.85
2018-04-29T12:19:00.731Z,6.35
2018-04-29T12:21:28.558Z,6.45
2018-04-29T12:23:56.376Z,5.62
2018-04-29T12:26:24.194Z,5.62
2018-04-29T12:28:52.033Z,5.25
2018-04-29T12:31:19.853Z,6.12
2018-04-29T12:33:47.689Z,5.50
2018-04-29T12:36:15.488Z,5.50
2018-04-29T12:38:43.314Z,5.87
2018-04-29T12:41:11.151Z,6.00
2018-04-29T12:43:39.014Z,5.57
2018-04-29T12:46:06.840Z,5.10
2018-04-29T12:48:35.453Z,5.72
2018-04-29T12:51:03.291Z,5.40
2018-04-29T12:53:31.881Z,5.25
2018-04-29T12:55:59.713Z,4.80
2018-04-29T12:58:27.536Z,5.37
2018-04-29T13:00:55.390Z,5.47
2018-04-29T13:03:23.210Z,5.18
2018-04-29T13:05:51.046Z,5.80
2018-04-29T13:08:18.876Z,5.20
2018-04-29T13:10:46.708Z,5.78
2018-04-29T13:13:14.561Z,5.32
2018-04-29T13:15:42.393Z,5.30
2018-04-29T13:18:10.227Z,5.50
2018-04-29T13:20:38.076Z,5.32
2018-04-29T13:23:05.931Z,5.10
2018-04-29T13:25:33.753Z,5.57
2018-04-29T13:28:02.338Z,5.72
2018-04-29T13:30:30.162Z,5.40
2018-04-29T13:32:57.986Z,5.40
2018-04-29T13:35:25.804Z,5.65
2018-04-29T13:37:53.654Z,5.20
2018-04-29T13:40:21.502Z,5.30
2018-04-29T13:42:49.339Z,5.10
2018-04-29T13:45:17.157Z,4.50
2018-04-29T13:47:44.997Z,4.78
2018-04-29T13:50:12.854Z,4.85
2018-04-29T13:52:40.703Z,4.60
2018-04-29T13:55:08.540Z,5.30
2018-04-29T13:57:36.363Z,4.80
2018-04-29T14:00:04.240Z,5.10
2018-04-29T14:02:32.066Z,5.22
2018-04-29T14:04:59.909Z,5.20
2018-04-29T14:07:28.538Z,5.15
2018-04-29T14:09:56.375Z,4.72
2018-04-29T14:12:24.951Z,4.95
2018-04-29T14:14:53.542Z,4.30
2018-04-29T14:17:22.117Z,5.32
2018-04-29T14:19:50.021Z,4.57
2018-04-29T14:22:18.682Z,4.37
2018-04-29T14:24:46.478Z,4.60
2018-04-29T14:27:14.313Z,4.45
2018-04-29T14:29:42.906Z,4.85
2018-04-29T14:32:10.733Z,4.43
2018-04-29T14:34:38.529Z,4.22
2018-04-29T14:37:07.187Z,4.35
2018-04-29T14:39:35.033Z,4.50
2018-04-29T14:42:02.902Z,4.35
2018-04-29T14:44:30.753Z,4.18
2018-04-29T14:46:58.596Z,4.28
2018-04-29T14:49:26.480Z,5.15
2018-04-29T14:51:54.281Z,5.03
2018-04-29T14:54:22.105Z,3.97
2018-04-29T14:56:49.937Z,4.57
2018-04-29T14:59:18.557Z,4.45
2018-04-29T15:01:46.409Z,4.78
2018-04-29T15:04:14.272Z,3.78
2018-04-29T15:06:42.097Z,4.03
2018-04-29T15:09:09.953Z,4.62
2018-04-29T15:11:37.798Z,4.68
2018-04-29T15:14:05.653Z,4.28
2018-04-29T15:16:33.469Z,4.60
2018-04-29T15:19:01.278Z,4.62
2018-04-29T15:21:29.113Z,4.85
2018-04-29T15:23:57.721Z,4.87
2018-04-29T15:26:25.557Z,4.55
2018-04-29T15:28:53.414Z,4.30
2018-04-29T15:31:21.247Z,4.70
2018-04-29T15:33:49.077Z,4.35
2018-04-29T15:36:17.660Z,4.70
2018-04-29T15:38:46.261Z,4.35
2018-04-29T15:41:14.118Z,4.50
2018-04-29T15:43:41.941Z,4.35
2018-04-29T15:46:09.759Z,4.65
2018-04-29T15:48:37.582Z,4.95
2018-04-29T15:51:05.413Z,4.70
2018-04-29T15:53:33.229Z,4.43
2018-04-29T15:56:01.841Z,4.70
2018-04-29T15:58:29.681Z,4.80
2018-04-29T16:00:58.294Z,5.53
2018-04-29T16:03:26.122Z,4.75
2018-04-29T16:05:53.964Z,4.78
2018-04-29T16:08:21.792Z,4.82
2018-04-29T16:10:49.621Z,4.55
2018-04-29T16:13:17.482Z,4.57
2018-04-29T16:15:45.300Z,5.00
2018-04-29T16:18:13.161Z,5.10
2018-04-29T16:20:41.007Z,4.70
2018-04-29T16:23:09.613Z,5.20
2018-04-29T16:25:37.433Z,5.05
2018-04-29T16:28:05.249Z,5.05
2018-04-29T16:30:33.090Z,4.97
2018-04-29T16:33:01.749Z,4.97
2018-04-29T16:35:29.578Z,4.85
2018-04-29T16:37:57.508Z,4.90
2018-04-29T16:40:25.282Z,5.07
2018-04-29T16:42:53.878Z,4.90
2018-04-29T16:45:21.725Z,5.05
2018-04-29T16:47:49.599Z,4.80
2018-04-29T16:50:18.178Z,5.45
2018-04-29T16:52:46.753Z,4.80
2018-04-29T16:55:15.390Z,4.30
2018-04-29T16:57:43.234Z,5.25
2018-04-29T17:00:11.106Z,4.25
2018-04-29T17:02:38.922Z,5.12
2018-04-29T17:05:06.769Z,5.20
2018-04-29T17:07:34.606Z,4.90
2018-04-29T17:10:02.445Z,4.85
2018-04-29T17:12:31.072Z,4.82
2018-04-29T17:14:58.908Z,5.28
2018-04-29T17:17:26.736Z,4.70
2018-04-29T17:19:54.557Z,4.85
2018-04-29T17:22:22.391Z,4.97
2018-04-29T17:24:51.008Z,4.78
2018-04-29T17:27:18.849Z,4.70
2018-04-29T17:29:47.441Z,4.78
2018-04-29T17:32:15.286Z,5.43
2018-04-29T17:34:43.868Z,5.25
2018-04-29T17:37:12.470Z,4.85
2018-04-29T17:39:41.074Z,4.35
2018-04-29T17:42:08.919Z,5.30
2018-04-29T17:44:37.520Z,4.90
2018-04-29T17:47:05.353Z,4.93
2018-04-29T17:49:33.213Z,4.75
2018-04-29T17:52:01.082Z,4.82
2018-04-29T17:54:28.918Z,5.03
2018-04-29T17:56:56.795Z,4.30
2018-04-29T17:59:24.605Z,5.18
2018-04-29T18:01:53.209Z,4.47
2018-04-29T18:04:21.037Z,4.82
2018-04-29T18:06:49.681Z,4.62
2018-04-29T18:09:17.506Z,4.53
2018-04-29T18:11:46.084Z,4.68
2018-04-29T18:14:14.734Z,4.45
2018-04-29T18:16:42.590Z,5.10
2018-04-29T18:19:10.436Z,5.03
2018-04-29T18:21:38.276Z,4.95
2018-04-29T18:24:06.922Z,5.18
2018-04-29T18:26:34.763Z,5.00
2018-04-29T18:29:02.594Z,5.37
2018-04-29T18:31:30.434Z,4.80
2018-04-29T18:33:58.298Z,4.87
2018-04-29T18:36:26.166Z,4.80
2018-04-29T18:38:54.049Z,4.50
2018-04-29T18:41:22.676Z,4.55
2018-04-29T18:43:50.511Z,4.50
2018-04-29T18:46:19.104Z,4.43
2018-04-29T18:48:47.047Z,4.93
2018-04-29T18:51:15.872Z,5.22
2018-04-29T18:53:43.550Z,4.78
2018-04-29T18:56:11.413Z,4.82
2018-04-29T18:58:39.287Z,4.90
2018-04-29T19:01:07.183Z,4.80
2018-04-29T19:03:35.067Z,4.90
2018-04-29T19:06:03.686Z,5.10
2018-04-29T19:08:31.534Z,4.72
2018-04-29T19:11:00.146Z,5.37
2018-04-29T19:13:27.993Z,4.47
2018-04-29T19:15:55.837Z,4.97
2018-04-29T19:18:23.653Z,5.32
2018-04-29T19:20:51.478Z,4.93
2018-04-29T19:23:20.095Z,4.72
2018-04-29T19:25:47.920Z,4.85
2018-04-29T19:28:15.737Z,5.12
2018-04-29T19:30:43.592Z,5.25
2018-04-29T19:33:11.429Z,4.85
2018-04-29T19:35:40.012Z,5.20
2018-04-29T19:38:08.597Z,5.37
2018-04-29T19:40:37.196Z,5.12
2018-04-29T19:43:05.014Z,4.93
2018-04-29T19:45:32.837Z,5.70
2018-04-29T19:48:00.669Z,5.25
2018-04-29T19:50:28.504Z,5.28
2018-04-29T19:52:56.339Z,5.05
2018-04-29T19:55:24.184Z,5.40
2018-04-29T19:57:52.779Z,5.32
2018-04-29T20:00:20.609Z,5.45
2018-04-29T20:02:48.445Z,5.57
2018-04-29T20:05:16.279Z,5.45
2018-04-29T20:07:44.110Z,4.95
2018-04-29T20:10:11.953Z,5.20
2018-04-29T20:12:40.554Z,5.30
2018-04-29T20:15:08.374Z,5.32
2018-04-29T20:17:36.219Z,5.47
2018-04-29T20:20:04.905Z,5.28
2018-04-29T20:22:33.510Z,5.25
2018-04-29T20:25:01.361Z,5.60
2018-04-29T20:27:29.946Z,5.37
2018-04-29T20:29:57.773Z,5.62
2018-04-29T20:32:51.249Z,5.00
2018-04-29T20:35:19.104Z,5.20
2018-04-29T20:37:46.948Z,5.22
2018-04-29T20:40:14.756Z,4.57
2018-04-29T20:42:42.562Z,4.80
2018-04-29T20:45:10.389Z,5.17
2018-04-29T20:47:39.017Z,4.97
2018-04-29T20:50:06.849Z,4.80
2018-04-29T20:52:35.453Z,5.30
2018-04-29T20:55:03.289Z,5.70
2018-04-29T20:57:31.131Z,4.87
2018-04-29T20:59:58.966Z,5.22
2018-04-29T21:02:26.815Z,5.07
2018-04-29T21:04:54.647Z,4.22
2018-04-29T21:07:22.497Z,4.65
2018-04-29T21:09:50.322Z,4.82
2018-04-29T21:12:18.169Z,5.07
2018-04-29T21:14:46.822Z,4.65
2018-04-29T21:17:14.789Z,4.72
2018-04-29T21:19:43.296Z,4.53
2018-04-29T21:22:11.893Z,4.70
2018-04-29T21:24:40.482Z,4.70
2018-04-29T21:27:08.331Z,5.22
2018-04-29T21:29:36.939Z,4.68
2018-04-29T21:32:04.760Z,4.15
2018-04-29T21:34:32.573Z,4.30
2018-04-29T21:37:00.404Z,4.90
2018-04-29T21:39:28.226Z,4.62
2018-04-29T21:41:56.058Z,4.87
2018-04-29T21:44:24.672Z,4.82
2018-04-29T21:46:52.489Z,4.57
2018-04-29T21:49:20.313Z,5.00
2018-04-29T21:51:48.163Z,4.90
2018-04-29T21:54:15.979Z,5.03
2018-04-29T21:56:43.801Z,4.73
2018-04-29T21:59:11.623Z,4.25
2018-04-29T22:01:39.460Z,4.77
2018-04-29T22:04:07.293Z,4.12
2018-04-29T22:06:35.134Z,4.30
2018-04-29T22:09:03.813Z,4.72
2018-04-29T22:11:32.412Z,4.20
2018-04-29T22:14:01.012Z,4.07
2018-04-29T22:16:28.826Z,4.35
2018-04-29T22:18:56.649Z,4.12
2018-04-29T22:21:24.458Z,4.60
2018-04-29T22:23:52.313Z,4.33
2018-04-29T22:26:20.153Z,4.62
2018-04-29T22:28:47.966Z,4.40
2018-04-29T22:31:15.810Z,4.27
2018-04-29T22:33:43.642Z,3.83
2018-04-29T22:36:11.451Z,4.23
2018-04-29T22:38:39.257Z,4.03
2018-04-29T22:41:07.853Z,4.20
2018-04-29T22:43:35.691Z,4.13
2018-04-29T22:46:04.303Z,3.63
2018-04-29T22:48:32.129Z,4.75
2018-04-29T22:50:59.986Z,4.32
2018-04-29T22:53:27.809Z,4.20
2018-04-29T22:55:55.654Z,3.83
2018-04-29T22:58:24.312Z,3.73
2018-04-29T23:00:52.165Z,4.00
2018-04-29T23:03:19.986Z,4.03
2018-04-29T23:05:47.828Z,3.90
2018-04-29T23:08:16.432Z,3.87
2018-04-29T23:10:44.265Z,4.60
2018-04-29T23:13:12.077Z,4.27
2018-04-29T23:15:39.929Z,4.63
2018-04-29T23:18:08.525Z,4.30
2018-04-29T23:20:36.375Z,4.03
2018-04-29T23:23:04.973Z,4.20
2018-04-29T23:25:32.810Z,4.07
2018-04-29T23:28:00.629Z,4.43
2018-04-29T23:30:28.462Z,5.20
2018-04-29T23:32:57.054Z,5.73
2018-04-29T23:35:24.908Z,6.57
2018-04-29T23:37:52.737Z,7.00
2018-04-29T23:40:20.569Z,6.57
2018-04-29T23:42:48.389Z,6.73
2018-04-29T23:45:16.226Z,5.50
2018-04-29T23:47:44.070Z,5.00
2018-04-29T23:50:11.926Z,4.30
2018-04-29T23:52:39.783Z,3.97
2018-04-29T23:55:07.615Z,3.83
2018-04-29T23:57:35.467Z,3.93
